createdAt,value
2018-03-24T00:01:38.005Z,4.02
2018-03-24T00:04:11.590Z,3.93
2018-03-24T00:06:45.095Z,3.89
2018-03-24T00:09:18.793Z,3.93
2018-03-24T00:11:52.377Z,3.93
2018-03-24T00:14:26.114Z,3.90
2018-03-24T00:16:59.704Z,3.83
2018-03-24T00:19:33.382Z,3.69
2018-03-24T00:22:06.882Z,3.67
2018-03-24T00:24:40.513Z,3.55
2018-03-24T00:27:14.070Z,3.55
2018-03-24T00:29:47.642Z,3.59
2018-03-24T00:32:21.274Z,3.69
2018-03-24T00:34:54.834Z,3.72
2018-03-24T00:37:28.454Z,3.64
2018-03-24T00:40:02.105Z,3.52
2018-03-24T00:42:35.672Z,3.39
2018-03-24T00:45:09.257Z,3.22
2018-03-24T00:47:42.821Z,3.07
2018-03-24T00:50:16.474Z,2.97
2018-03-24T00:52:50.154Z,2.82
2018-03-24T00:55:23.684Z,2.70
2018-03-24T00:57:57.409Z,2.59
2018-03-24T01:00:31.011Z,2.46
2018-03-24T01:03:04.613Z,2.36
2018-03-24T01:05:38.368Z,2.29
2018-03-24T01:08:12.037Z,2.21
2018-03-24T01:10:45.641Z,2.15
2018-03-24T01:13:19.228Z,2.21
2018-03-24T01:15:53.092Z,2.24
2018-03-24T01:18:26.839Z,2.17
2018-03-24T01:21:00.545Z,2.07
2018-03-24T01:23:34.185Z,2.02
2018-03-24T01:26:07.761Z,2.00
2018-03-24T01:28:41.523Z,1.93
2018-03-24T01:31:15.077Z,1.88
2018-03-24T01:33:48.764Z,1.78
2018-03-24T01:42:20.866Z,1.84
2018-03-24T01:44:54.486Z,1.86
2018-03-24T01:47:28.173Z,1.83
2018-03-24T01:50:01.886Z,1.83
2018-03-24T01:52:35.604Z,1.80
2018-03-24T01:55:09.281Z,1.79
2018-03-24T01:57:42.955Z,1.72
2018-03-24T02:00:16.560Z,1.71
2018-03-24T02:02:50.213Z,1.79
2018-03-24T02:05:23.934Z,1.81
2018-03-24T02:07:57.614Z,1.78
2018-03-24T02:10:31.245Z,1.75
2018-03-24T02:13:04.977Z,1.82
2018-03-24T02:15:38.630Z,1.85
2018-03-24T02:18:12.249Z,1.80
2018-03-24T02:20:45.908Z,1.82
2018-03-24T02:23:19.611Z,1.81
2018-03-24T02:25:53.409Z,1.73
2018-03-24T02:28:26.885Z,1.64
2018-03-24T02:31:00.557Z,1.53
2018-03-24T02:33:34.263Z,1.53
2018-03-24T02:36:07.922Z,1.48
2018-03-24T02:38:41.586Z,1.44
2018-03-24T02:41:15.254Z,1.40
2018-03-24T02:43:48.854Z,1.35
2018-03-24T02:49:21.914Z,1.43
2018-03-24T02:51:55.524Z,1.43
2018-03-24T02:54:29.193Z,1.44
2018-03-24T02:57:02.728Z,1.45
2018-03-24T02:59:36.478Z,1.45
2018-03-24T03:02:10.050Z,1.42
2018-03-24T03:04:43.690Z,1.38
2018-03-24T03:07:17.230Z,1.35
2018-03-24T03:09:51.026Z,1.31
2018-03-24T03:12:24.711Z,1.27
2018-03-24T03:14:58.326Z,1.37
2018-03-24T03:17:31.790Z,1.34
2018-03-24T03:20:05.398Z,1.38
2018-03-24T03:22:39.075Z,1.38
2018-03-24T03:25:18.393Z,1.39
2018-03-24T03:27:51.979Z,1.41
2018-03-24T03:33:24.307Z,1.43
2018-03-24T03:35:57.990Z,1.35
2018-03-24T03:38:31.642Z,1.43
2018-03-24T03:41:05.326Z,1.30
2018-03-24T03:43:38.868Z,1.28
2018-03-24T03:46:12.487Z,1.21
2018-03-24T03:48:46.026Z,1.30
2018-03-24T03:51:19.654Z,1.29
2018-03-24T03:53:53.415Z,1.26
2018-03-24T03:56:27.023Z,1.20
2018-03-24T03:59:00.563Z,1.16
2018-03-24T04:01:34.319Z,1.21
2018-03-24T04:04:08.026Z,1.13
2018-03-24T04:06:41.699Z,1.09
2018-03-24T04:09:15.378Z,1.13
2018-03-24T04:11:49.053Z,1.15
2018-03-24T04:14:23.142Z,1.20
2018-03-24T04:16:56.736Z,1.27
2018-03-24T04:19:30.378Z,1.25
2018-03-24T04:22:04.045Z,1.18
2018-03-24T04:24:37.651Z,1.19
2018-03-24T04:30:10.403Z,1.24
2018-03-24T04:32:44.062Z,1.18
2018-03-24T04:35:17.706Z,1.14
2018-03-24T04:37:51.363Z,1.14
2018-03-24T04:40:24.983Z,1.09
2018-03-24T04:42:58.747Z,0.99
2018-03-24T04:45:32.340Z,0.98
2018-03-24T04:48:05.928Z,0.91
2018-03-24T04:50:39.614Z,0.98
2018-03-24T04:53:13.329Z,0.91
2018-03-24T04:55:46.907Z,0.87
2018-03-24T04:58:20.671Z,0.91
2018-03-24T05:00:54.471Z,1.01
2018-03-24T05:03:28.286Z,0.94
2018-03-24T05:06:01.909Z,0.93
2018-03-24T05:08:35.622Z,0.94
2018-03-24T05:11:09.718Z,0.92
2018-03-24T05:13:43.250Z,1.07
2018-03-24T05:16:16.931Z,1.10
2018-03-24T05:18:50.715Z,1.33
2018-03-24T05:21:24.286Z,1.36
2018-03-24T05:23:57.872Z,1.47
2018-03-24T05:29:31.008Z,1.43
2018-03-24T05:32:04.732Z,1.47
2018-03-24T05:34:38.412Z,1.57
2018-03-24T05:37:12.111Z,1.66
2018-03-24T05:39:45.892Z,1.88
2018-03-24T05:42:19.567Z,2.05
2018-03-24T05:44:53.154Z,2.10
2018-03-24T05:47:26.823Z,2.19
2018-03-24T05:50:00.384Z,2.27
2018-03-24T05:52:33.978Z,2.33
2018-03-24T05:55:07.887Z,2.39
2018-03-24T05:57:41.575Z,2.55
2018-03-24T06:00:15.322Z,2.60
2018-03-24T06:02:49.108Z,2.74
2018-03-24T06:05:22.802Z,2.78
2018-03-24T06:07:56.388Z,2.76
2018-03-24T06:10:30.068Z,2.83
2018-03-24T06:13:03.714Z,2.90
2018-03-24T06:15:37.382Z,2.92
2018-03-24T06:18:11.099Z,3.03
2018-03-24T06:20:44.795Z,3.18
2018-03-24T06:23:18.491Z,3.18
2018-03-24T06:25:52.035Z,3.29
2018-03-24T06:28:25.698Z,3.42
2018-03-24T06:31:02.278Z,3.43
2018-03-24T06:33:36.046Z,3.50
2018-03-24T06:36:12.246Z,3.58
2018-03-24T06:38:46.008Z,3.67
2018-03-24T06:41:19.664Z,3.86
2018-03-24T06:43:53.468Z,3.87
2018-03-24T06:46:27.066Z,3.97
2018-03-24T06:49:00.783Z,4.15
2018-03-24T06:51:34.706Z,4.24
2018-03-24T06:54:08.370Z,4.53
2018-03-24T06:56:42.047Z,4.53
2018-03-24T06:59:15.770Z,5.06
2018-03-24T07:01:49.618Z,5.51
2018-03-24T07:04:23.310Z,6.07
2018-03-24T07:06:56.931Z,7.49
2018-03-24T07:09:30.622Z,8.43
2018-03-24T07:12:04.454Z,8.90
2018-03-24T07:14:38.002Z,9.86
2018-03-24T07:23:10.262Z,12.12
2018-03-24T07:25:44.027Z,11.50
2018-03-24T07:28:17.764Z,13.19
2018-03-24T07:30:51.518Z,13.27
2018-03-24T07:33:25.232Z,14.05
2018-03-24T07:35:58.842Z,13.78
2018-03-24T07:38:32.519Z,13.85
2018-03-24T07:41:06.131Z,14.81
2018-03-24T07:43:39.912Z,14.33
2018-03-24T07:46:13.491Z,13.92
2018-03-24T07:48:47.207Z,14.18
2018-03-24T07:51:20.863Z,14.60
2018-03-24T07:53:54.578Z,14.73
2018-03-24T07:56:28.363Z,14.95
2018-03-24T07:59:02.129Z,15.77
2018-03-24T08:01:35.937Z,15.52
2018-03-24T08:04:09.478Z,15.51
2018-03-24T08:06:43.303Z,15.44
2018-03-24T08:09:17.037Z,15.92
2018-03-24T08:11:50.550Z,15.43
2018-03-24T08:14:24.246Z,15.58
2018-03-24T08:17:08.654Z,16.60
2018-03-24T08:19:42.222Z,16.51
2018-03-24T08:22:15.863Z,16.35
2018-03-24T08:24:49.511Z,14.82
2018-03-24T08:27:23.049Z,14.54
2018-03-24T08:29:56.729Z,14.37
2018-03-24T08:32:30.478Z,14.33
2018-03-24T08:35:04.082Z,14.64
2018-03-24T08:37:37.842Z,13.70
2018-03-24T08:40:11.557Z,13.47
2018-03-24T08:42:45.200Z,13.89
2018-03-24T08:45:18.787Z,13.67
2018-03-24T08:47:52.609Z,13.22
2018-03-24T08:50:26.336Z,13.27
2018-03-24T08:52:59.906Z,13.82
2018-03-24T08:55:33.510Z,13.81
2018-03-24T08:58:07.208Z,13.44
2018-03-24T09:00:40.947Z,13.29
2018-03-24T09:03:14.654Z,13.30
2018-03-24T09:05:48.291Z,13.60
2018-03-24T09:08:22.078Z,14.25
2018-03-24T09:10:55.934Z,14.08
2018-03-24T09:13:29.767Z,14.71
2018-03-24T09:16:03.481Z,14.77
2018-03-24T09:18:37.211Z,14.23
2018-03-24T09:21:10.868Z,13.90
2018-03-24T09:23:44.470Z,14.02
2018-03-24T09:26:18.099Z,14.01
2018-03-24T09:28:51.747Z,14.00
2018-03-24T09:31:25.476Z,14.37
2018-03-24T09:33:59.196Z,13.88
2018-03-24T09:36:32.847Z,13.29
2018-03-24T09:39:06.410Z,12.88
2018-03-24T09:41:40.175Z,11.86
2018-03-24T09:44:13.768Z,11.60
2018-03-24T09:46:47.498Z,11.47
2018-03-24T09:49:21.091Z,11.18
2018-03-24T09:51:54.780Z,11.15
2018-03-24T09:54:28.724Z,11.13
2018-03-24T09:57:02.462Z,11.02
2018-03-24T09:59:36.230Z,11.11
2018-03-24T10:02:10.054Z,10.73
2018-03-24T10:04:43.796Z,11.20
2018-03-24T10:07:17.499Z,11.30
2018-03-24T10:09:51.222Z,11.41
2018-03-24T10:12:24.967Z,11.39
2018-03-24T10:14:58.799Z,11.52
2018-03-24T10:17:32.506Z,11.25
2018-03-24T10:20:06.162Z,11.86
2018-03-24T10:22:51.703Z,11.63
2018-03-24T10:25:25.382Z,11.41
2018-03-24T10:27:59.175Z,11.47
2018-03-24T10:30:32.946Z,11.70
2018-03-24T10:33:06.556Z,11.85
2018-03-24T10:35:40.137Z,11.72
2018-03-24T10:38:13.896Z,11.72
2018-03-24T10:40:47.448Z,11.60
2018-03-24T10:43:26.845Z,11.44
2018-03-24T10:46:00.543Z,12.21
2018-03-24T10:48:34.217Z,12.07
2018-03-24T10:51:07.838Z,12.13
2018-03-24T10:53:41.546Z,12.52
2018-03-24T10:56:15.133Z,13.01
2018-03-24T10:58:48.943Z,13.42
2018-03-24T11:01:24.943Z,13.75
2018-03-24T11:03:58.557Z,15.12
2018-03-24T11:06:32.272Z,15.23
2018-03-24T11:09:05.927Z,14.05
2018-03-24T11:11:39.471Z,12.74
2018-03-24T11:14:13.067Z,13.43
2018-03-24T11:16:46.818Z,14.94
2018-03-24T11:19:20.608Z,15.51
2018-03-24T11:21:54.351Z,14.71
2018-03-24T11:24:27.895Z,13.57
2018-03-24T11:30:10.330Z,12.62
2018-03-24T11:32:44.078Z,12.52
2018-03-24T11:35:17.752Z,11.98
2018-03-24T11:37:51.498Z,11.90
2018-03-24T11:40:25.163Z,11.97
2018-03-24T11:42:58.834Z,11.75
2018-03-24T11:45:32.558Z,11.47
2018-03-24T11:48:06.299Z,11.65
2018-03-24T11:50:40.099Z,12.10
2018-03-24T11:53:13.903Z,12.25
2018-03-24T11:55:47.734Z,12.31
2018-03-24T11:58:21.289Z,12.27
2018-03-24T12:00:54.878Z,12.36
2018-03-24T12:03:28.630Z,12.15
2018-03-24T12:06:02.414Z,11.79
2018-03-24T12:08:36.218Z,12.07
2018-03-24T12:11:10.059Z,12.16
2018-03-24T12:13:43.897Z,12.20
2018-03-24T12:16:17.606Z,12.15
2018-03-24T12:18:51.213Z,12.40
2018-03-24T12:21:24.864Z,12.31
2018-03-24T12:23:58.532Z,12.39
2018-03-24T12:26:32.173Z,11.94
2018-03-24T12:29:05.926Z,11.92
2018-03-24T12:31:39.598Z,12.14
2018-03-24T12:34:13.263Z,12.14
2018-03-24T12:36:46.926Z,12.27
2018-03-24T12:39:20.535Z,12.21
2018-03-24T12:41:54.263Z,12.62
2018-03-24T12:44:27.858Z,12.65
2018-03-24T12:47:01.613Z,12.92
2018-03-24T12:49:35.198Z,12.66
2018-03-24T12:52:08.996Z,12.56
2018-03-24T12:54:42.582Z,12.16
2018-03-24T12:57:16.331Z,12.07
2018-03-24T12:59:50.066Z,12.12
2018-03-24T13:02:23.784Z,12.11
2018-03-24T13:04:57.491Z,12.06
2018-03-24T13:07:31.223Z,11.98
2018-03-24T13:10:04.908Z,12.19
2018-03-24T13:12:38.506Z,12.19
2018-03-24T13:15:12.147Z,11.94
2018-03-24T13:17:45.847Z,11.86
2018-03-24T13:20:19.510Z,12.24
2018-03-24T13:22:53.111Z,12.28
2018-03-24T13:25:26.786Z,12.23
2018-03-24T13:28:00.627Z,11.91
2018-03-24T13:30:34.188Z,11.54
2018-03-24T13:33:07.967Z,11.90
2018-03-24T13:35:41.623Z,12.13
2018-03-24T13:38:15.180Z,11.91
2018-03-24T13:40:48.879Z,11.79
2018-03-24T13:43:22.594Z,11.55
2018-03-24T13:45:56.382Z,11.18
2018-03-24T13:48:30.026Z,11.18
2018-03-24T13:51:03.759Z,11.34
2018-03-24T13:53:37.455Z,11.30
2018-03-24T13:56:11.298Z,11.62
2018-03-24T13:58:44.896Z,11.76
2018-03-24T14:01:18.523Z,11.82
2018-03-24T14:03:52.086Z,12.08
2018-03-24T14:06:25.709Z,12.01
2018-03-24T14:08:59.432Z,12.20
2018-03-24T14:11:33.152Z,12.01
2018-03-24T14:14:06.739Z,12.09
2018-03-24T14:16:40.502Z,12.30
2018-03-24T14:19:14.252Z,12.44
2018-03-24T14:21:47.967Z,12.56
2018-03-24T14:24:21.719Z,12.74
2018-03-24T14:26:59.467Z,12.73
2018-03-24T14:29:33.266Z,12.83
2018-03-24T14:32:07.031Z,13.13
2018-03-24T14:34:40.911Z,13.77
2018-03-24T14:37:14.539Z,13.58
2018-03-24T14:39:48.155Z,13.83
2018-03-24T14:42:21.734Z,13.73
2018-03-24T14:44:55.490Z,14.88
2018-03-24T14:47:29.288Z,15.61
2018-03-24T14:50:02.987Z,14.41
2018-03-24T14:52:36.823Z,14.16
2018-03-24T14:55:10.415Z,13.69
2018-03-24T14:57:44.093Z,14.20
2018-03-24T15:00:17.655Z,14.66
2018-03-24T15:02:51.262Z,14.24
2018-03-24T15:05:24.991Z,13.55
2018-03-24T15:07:58.582Z,12.94
2018-03-24T15:10:32.160Z,12.56
2018-03-24T15:13:05.994Z,12.20
2018-03-24T15:15:39.683Z,11.82
2018-03-24T15:18:13.413Z,11.70
2018-03-24T15:20:47.259Z,11.66
2018-03-24T15:23:21.175Z,11.73
2018-03-24T15:25:54.743Z,13.41
2018-03-24T15:28:28.459Z,14.96
2018-03-24T15:31:14.238Z,16.42
2018-03-24T15:33:59.859Z,17.12
2018-03-24T15:36:43.500Z,15.87
2018-03-24T15:39:17.170Z,15.85
2018-03-24T15:41:50.790Z,16.12
2018-03-24T15:44:24.559Z,16.20
2018-03-24T15:49:57.803Z,15.85
2018-03-24T15:52:31.514Z,16.23
2018-03-24T15:55:05.099Z,14.81
2018-03-24T15:57:39.126Z,14.93
2018-03-24T16:00:12.787Z,14.14
2018-03-24T16:02:46.455Z,14.87
2018-03-24T16:05:20.146Z,15.34
2018-03-24T16:07:53.745Z,15.49
2018-03-24T16:10:27.467Z,15.00
2018-03-24T16:13:01.070Z,15.71
2018-03-24T16:15:34.716Z,15.69
2018-03-24T16:18:08.270Z,15.63
2018-03-24T16:20:42.004Z,15.20
2018-03-24T16:23:15.663Z,15.41
2018-03-24T16:25:49.335Z,15.49
2018-03-24T16:28:23.045Z,14.74
2018-03-24T16:30:56.841Z,14.68
2018-03-24T16:33:30.571Z,14.45
2018-03-24T16:36:04.282Z,13.75
2018-03-24T16:38:37.874Z,13.14
2018-03-24T16:41:11.634Z,12.65
2018-03-24T16:43:45.375Z,12.14
2018-03-24T16:46:19.123Z,11.73
2018-03-24T16:48:52.892Z,11.51
2018-03-24T16:51:26.676Z,11.04
2018-03-24T16:54:00.310Z,10.83
2018-03-24T16:56:33.918Z,10.60
2018-03-24T16:59:07.705Z,10.46
2018-03-24T17:01:41.443Z,10.23
2018-03-24T17:04:15.124Z,10.00
2018-03-24T17:06:48.889Z,10.10
2018-03-24T17:09:22.660Z,10.06
2018-03-24T17:11:56.424Z,10.02
2018-03-24T17:14:30.079Z,9.75
2018-03-24T17:17:03.819Z,9.59
2018-03-24T17:19:37.483Z,9.45
2018-03-24T17:22:11.017Z,9.31
2018-03-24T17:24:44.711Z,9.23
2018-03-24T17:27:18.467Z,9.13
2018-03-24T17:29:52.184Z,9.02
2018-03-24T17:32:25.748Z,8.89
2018-03-24T17:35:00.060Z,8.82
2018-03-24T17:37:33.802Z,8.75
2018-03-24T17:40:07.622Z,8.68
2018-03-24T17:42:41.256Z,8.60
2018-03-24T17:45:14.870Z,8.49
2018-03-24T17:47:48.410Z,8.35
2018-03-24T17:50:22.026Z,8.22
2018-03-24T17:52:55.675Z,8.09
2018-03-24T17:55:29.345Z,8.02
2018-03-24T17:58:03.052Z,7.97
2018-03-24T18:00:36.652Z,7.84
2018-03-24T18:03:10.475Z,7.70
2018-03-24T18:05:44.238Z,7.57
2018-03-24T18:08:18.078Z,7.46
2018-03-24T18:10:51.874Z,7.41
2018-03-24T18:13:25.523Z,7.33
2018-03-24T18:15:59.203Z,7.28
2018-03-24T18:18:32.730Z,7.20
2018-03-24T18:21:06.409Z,7.16
2018-03-24T18:23:39.950Z,7.14
2018-03-24T18:26:13.678Z,7.15
2018-03-24T18:28:47.330Z,7.15
2018-03-24T18:31:21.155Z,7.11
2018-03-24T18:33:54.694Z,7.12
2018-03-24T18:36:28.344Z,7.03
2018-03-24T18:39:01.941Z,6.97
2018-03-24T18:41:35.698Z,6.93
2018-03-24T18:44:09.357Z,6.93
2018-03-24T18:46:43.074Z,6.86
2018-03-24T18:49:16.708Z,6.79
2018-03-24T18:51:50.527Z,6.70
2018-03-24T18:54:24.310Z,6.66
2018-03-24T18:56:57.990Z,6.68
2018-03-24T18:59:31.577Z,6.79
2018-03-24T19:02:05.126Z,6.82
2018-03-24T19:04:38.790Z,6.77
2018-03-24T19:07:12.391Z,6.63
2018-03-24T19:09:46.077Z,6.58
2018-03-24T19:12:19.796Z,6.69
2018-03-24T19:14:53.317Z,6.66
2018-03-24T19:17:27.057Z,6.70
2018-03-24T19:20:00.732Z,6.63
2018-03-24T19:22:34.346Z,6.53
2018-03-24T19:25:08.205Z,6.36
2018-03-24T19:27:41.869Z,6.29
2018-03-24T19:30:15.546Z,6.18
2018-03-24T19:32:49.215Z,6.14
2018-03-24T19:35:22.822Z,6.15
2018-03-24T19:37:56.428Z,6.08
2018-03-24T19:40:30.218Z,6.00
2018-03-24T19:43:03.777Z,5.92
2018-03-24T19:45:37.438Z,5.78
2018-03-24T19:48:11.038Z,5.71
2018-03-24T19:50:44.752Z,5.63
2018-03-24T19:53:18.393Z,5.53
2018-03-24T19:55:52.070Z,5.49
2018-03-24T19:58:25.755Z,5.52
2018-03-24T20:00:59.470Z,5.54
2018-03-24T20:03:33.154Z,5.45
2018-03-24T20:06:06.702Z,5.38
2018-03-24T20:08:40.357Z,5.35
2018-03-24T20:11:14.028Z,5.26
2018-03-24T20:13:47.748Z,5.20
2018-03-24T20:16:21.243Z,5.17
2018-03-24T20:18:54.977Z,5.15
2018-03-24T20:21:28.574Z,5.08
2018-03-24T20:24:02.562Z,5.07
2018-03-24T20:26:36.258Z,5.08
2018-03-24T20:29:09.899Z,5.19
2018-03-24T20:31:43.470Z,5.30
2018-03-24T20:34:17.126Z,5.28
2018-03-24T20:36:50.757Z,5.32
2018-03-24T20:39:24.401Z,5.22
2018-03-24T20:41:58.012Z,5.12
2018-03-24T20:44:31.598Z,5.04
2018-03-24T20:47:05.090Z,4.93
2018-03-24T20:49:38.670Z,4.89
2018-03-24T20:52:12.222Z,4.75
2018-03-24T20:54:45.833Z,4.64
2018-03-24T20:57:19.498Z,4.56
2018-03-24T20:59:53.154Z,4.51
2018-03-24T21:02:26.682Z,4.50
2018-03-24T21:05:00.326Z,4.47
2018-03-24T21:07:33.866Z,4.51
2018-03-24T21:10:07.478Z,4.50
2018-03-24T21:12:41.126Z,4.47
2018-03-24T21:15:14.705Z,4.51
2018-03-24T21:17:48.438Z,4.50
2018-03-24T21:20:22.142Z,4.55
2018-03-24T21:22:55.796Z,4.51
2018-03-24T21:25:29.422Z,4.50
2018-03-24T21:28:03.021Z,4.47
2018-03-24T21:30:36.612Z,4.50
2018-03-24T21:33:10.138Z,4.49
2018-03-24T21:35:43.685Z,4.52
2018-03-24T21:38:17.241Z,4.48
2018-03-24T21:40:50.830Z,4.49
2018-03-24T21:43:24.594Z,4.56
2018-03-24T21:45:58.150Z,4.60
2018-03-24T21:48:31.778Z,4.49
2018-03-24T21:51:05.362Z,4.44
2018-03-24T21:53:38.936Z,4.45
2018-03-24T21:56:12.570Z,4.48
2018-03-24T21:58:46.171Z,4.47
2018-03-24T22:01:19.899Z,4.49
2018-03-24T22:03:53.376Z,4.47
2018-03-24T22:06:27.058Z,4.53
2018-03-24T22:09:00.691Z,4.64
2018-03-24T22:11:34.339Z,4.68
2018-03-24T22:14:07.862Z,4.71
2018-03-24T22:16:41.458Z,4.70
2018-03-24T22:19:15.266Z,4.66
2018-03-24T22:21:48.973Z,4.61
2018-03-24T22:24:22.626Z,4.61
2018-03-24T22:26:56.266Z,4.66
2018-03-24T22:29:29.818Z,4.73
2018-03-24T22:32:03.364Z,4.68
2018-03-24T22:34:37.033Z,4.70
2018-03-24T22:37:10.757Z,4.62
2018-03-24T22:39:44.380Z,4.60
2018-03-24T22:42:17.957Z,4.68
2018-03-24T22:44:51.469Z,4.72
2018-03-24T22:47:25.146Z,4.71
2018-03-24T22:49:58.717Z,4.68
2018-03-24T22:52:32.392Z,4.67
2018-03-24T22:55:06.178Z,4.70
2018-03-24T22:57:39.802Z,4.69
2018-03-24T23:00:13.480Z,4.66
2018-03-24T23:02:47.064Z,4.61
2018-03-24T23:05:20.838Z,4.54
2018-03-24T23:07:54.538Z,4.51
2018-03-24T23:10:28.143Z,4.45
2018-03-24T23:13:01.861Z,4.42
2018-03-24T23:15:35.415Z,4.45
2018-03-24T23:18:09.098Z,4.40
2018-03-24T23:20:42.677Z,4.36
2018-03-24T23:23:16.279Z,4.49
2018-03-24T23:25:49.846Z,4.55
2018-03-24T23:28:23.490Z,4.52
2018-03-24T23:30:57.102Z,4.47
2018-03-24T23:33:30.705Z,4.46
2018-03-24T23:36:04.277Z,4.44
2018-03-24T23:38:37.889Z,4.41
2018-03-24T23:41:11.497Z,4.44
2018-03-24T23:43:45.092Z,4.41
2018-03-24T23:46:18.658Z,4.45
2018-03-24T23:48:52.386Z,4.46
2018-03-24T23:51:26.037Z,4.36
2018-03-24T23:53:59.644Z,4.35
2018-03-24T23:56:33.249Z,4.26
2018-03-24T23:59:06.833Z,4.24
